createdAt,value
2022-08-07T00:01:44.272Z,15.40
2022-08-07T00:04:06.670Z,15.40
2022-08-07T00:06:45.542Z,15.40
2022-08-07T00:09:21.334Z,15.40
2022-08-07T00:11:55.556Z,15.40
2022-08-07T00:14:30.377Z,15.40
2022-08-07T00:17:01.628Z,15.40
2022-08-07T00:20:00.644Z,15.40
2022-08-07T00:22:24.378Z,15.20
2022-08-07T00:25:03.705Z,15.20
2022-08-07T00:27:52.425Z,15.10
2022-08-07T00:30:27.921Z,15.30
2022-08-07T00:32:56.963Z,15.30
2022-08-07T00:35:26.048Z,15.30
2022-08-07T00:37:54.810Z,15.20
2022-08-07T00:40:36.300Z,15.20
2022-08-07T00:43:09.808Z,15.10
2022-08-07T00:45:41.195Z,15.00
2022-08-07T00:48:11.303Z,15.10
2022-08-07T00:50:50.347Z,15.10
2022-08-07T00:53:20.466Z,15.00
2022-08-07T00:56:02.551Z,15.00
2022-08-07T00:58:32.501Z,15.00
2022-08-07T01:01:04.241Z,15.00
2022-08-07T01:03:55.895Z,15.00
2022-08-07T01:06:21.856Z,14.90
2022-08-07T01:08:53.290Z,14.90
2022-08-07T01:12:23.406Z,14.90
2022-08-07T01:14:11.020Z,14.90
2022-08-07T01:16:46.804Z,14.90
2022-08-07T01:19:18.859Z,14.90
2022-08-07T01:21:55.375Z,14.90
2022-08-07T01:24:30.845Z,14.80
2022-08-07T01:27:01.635Z,14.80
2022-08-07T01:29:34.160Z,14.80
2022-08-07T01:32:12.463Z,14.80
2022-08-07T01:34:47.320Z,14.80
2022-08-07T01:37:22.030Z,14.80
2022-08-07T01:39:53.110Z,14.80
2022-08-07T01:42:39.753Z,14.70
2022-08-07T01:45:22.973Z,14.70
2022-08-07T01:48:20.088Z,14.70
2022-08-07T01:50:58.935Z,14.60
2022-08-07T01:54:09.571Z,14.60
2022-08-07T01:56:29.033Z,14.60
2022-08-07T01:59:09.206Z,14.60
2022-08-07T02:01:59.829Z,14.50
2022-08-07T02:04:56.239Z,14.50
2022-08-07T02:07:50.432Z,14.50
2022-08-07T02:10:29.028Z,14.40
2022-08-07T02:13:02.846Z,14.30
2022-08-07T02:15:40.063Z,14.40
2022-08-07T02:18:12.581Z,14.30
2022-08-07T02:20:43.463Z,14.30
2022-08-07T02:23:23.985Z,14.30
2022-08-07T02:26:26.742Z,14.10
2022-08-07T02:28:44.922Z,14.20
2022-08-07T02:31:28.077Z,14.20
2022-08-07T02:34:10.976Z,14.20
2022-08-07T02:36:46.974Z,14.10
2022-08-07T02:39:43.345Z,14.10
2022-08-07T02:42:16.225Z,14.10
2022-08-07T02:44:49.769Z,14.10
2022-08-07T02:47:25.358Z,14.10
2022-08-07T02:50:02.096Z,14.10
2022-08-07T02:52:44.198Z,14.00
2022-08-07T02:55:28.445Z,14.00
2022-08-07T02:58:17.514Z,14.00
2022-08-07T03:00:53.341Z,13.90
2022-08-07T03:03:24.645Z,14.00
2022-08-07T03:05:59.093Z,13.90
2022-08-07T03:08:29.297Z,13.80
2022-08-07T03:11:00.238Z,13.90
2022-08-07T03:13:39.136Z,13.70
2022-08-07T03:16:23.086Z,13.70
2022-08-07T03:18:57.366Z,13.50
2022-08-07T03:21:25.735Z,13.50
2022-08-07T03:24:20.159Z,13.50
2022-08-07T03:26:58.056Z,13.50
2022-08-07T03:29:37.467Z,13.40
2022-08-07T03:32:13.400Z,13.40
2022-08-07T03:34:47.447Z,13.30
2022-08-07T03:37:32.516Z,13.30
2022-08-07T03:40:15.589Z,13.30
2022-08-07T03:42:45.789Z,13.20
2022-08-07T03:45:30.381Z,13.20
2022-08-07T03:48:09.962Z,13.20
2022-08-07T03:50:39.946Z,13.10
2022-08-07T03:53:12.269Z,13.10
2022-08-07T03:55:52.979Z,13.10
2022-08-07T03:59:07.997Z,13.10
2022-08-07T04:01:27.966Z,13.00
2022-08-07T04:03:56.938Z,13.00
2022-08-07T04:06:37.238Z,13.00
2022-08-07T04:09:15.890Z,13.00
2022-08-07T04:12:25.319Z,13.00
2022-08-07T04:14:46.002Z,13.00
2022-08-07T04:17:21.818Z,13.00
2022-08-07T04:19:55.179Z,13.00
2022-08-07T04:22:29.572Z,13.00
2022-08-07T04:25:02.542Z,13.10
2022-08-07T04:27:35.460Z,13.00
2022-08-07T04:30:35.789Z,13.00
2022-08-07T04:33:09.943Z,13.00
2022-08-07T04:35:50.577Z,13.00
2022-08-07T04:38:22.995Z,13.00
2022-08-07T04:40:53.149Z,13.00
2022-08-07T04:44:11.964Z,13.10
2022-08-07T04:46:34.708Z,13.00
2022-08-07T04:49:24.744Z,13.10
2022-08-07T04:52:07.208Z,13.10
2022-08-07T04:54:42.807Z,13.20
2022-08-07T04:58:16.217Z,13.20
2022-08-07T05:00:32.378Z,13.30
2022-08-07T05:03:31.190Z,13.30
2022-08-07T05:06:19.612Z,13.30
2022-08-07T05:09:00.831Z,13.40
2022-08-07T05:11:58.884Z,13.40
2022-08-07T05:14:52.665Z,13.50
2022-08-07T05:17:52.869Z,13.50
2022-08-07T05:20:14.611Z,13.50
2022-08-07T05:22:50.421Z,13.60
2022-08-07T05:25:25.769Z,13.60
2022-08-07T05:28:20.339Z,13.70
2022-08-07T05:30:53.413Z,13.80
2022-08-07T05:33:23.346Z,13.80
2022-08-07T05:35:55.157Z,13.90
2022-08-07T05:39:00.643Z,13.90
2022-08-07T05:41:18.312Z,14.00
2022-08-07T05:44:12.118Z,14.10
2022-08-07T05:46:47.329Z,14.10
2022-08-07T05:49:27.722Z,14.20
2022-08-07T05:52:11.773Z,14.30
2022-08-07T05:54:53.890Z,14.40
2022-08-07T05:57:29.879Z,14.50
2022-08-07T06:00:01.762Z,14.60
2022-08-07T06:02:41.744Z,14.60
2022-08-07T06:05:15.639Z,14.70
2022-08-07T06:08:29.576Z,14.80
2022-08-07T06:10:40.177Z,14.90
2022-08-07T06:13:13.463Z,15.10
2022-08-07T06:15:44.267Z,15.10
2022-08-07T06:18:21.397Z,15.20
2022-08-07T06:22:14.940Z,15.30
2022-08-07T06:24:37.691Z,15.40
2022-08-07T06:26:31.702Z,15.50
2022-08-07T06:29:01.621Z,15.60
2022-08-07T06:31:38.846Z,15.70
2022-08-07T06:34:21.621Z,15.80
2022-08-07T06:36:52.162Z,16.00
2022-08-07T06:40:17.214Z,16.00
2022-08-07T06:42:19.142Z,16.10
2022-08-07T06:45:11.606Z,16.20
2022-08-07T06:47:47.969Z,16.30
2022-08-07T06:50:25.890Z,16.40
2022-08-07T06:52:55.747Z,16.50
2022-08-07T06:56:00.553Z,16.60
2022-08-07T06:58:21.373Z,16.60
2022-08-07T07:01:01.047Z,16.60
2022-08-07T07:03:47.492Z,16.70
2022-08-07T07:06:26.298Z,16.80
2022-08-07T07:09:16.630Z,16.90
2022-08-07T07:12:16.666Z,17.00
2022-08-07T07:14:59.096Z,17.10
2022-08-07T07:17:39.109Z,17.20
2022-08-07T07:20:17.130Z,17.20
2022-08-07T07:24:05.358Z,17.30
2022-08-07T07:26:34.613Z,17.40
2022-08-07T07:28:48.504Z,17.50
2022-08-07T07:31:30.484Z,17.50
2022-08-07T07:34:21.977Z,17.60
2022-08-07T07:37:14.348Z,17.70
2022-08-07T07:39:52.434Z,17.80
2022-08-07T07:42:32.506Z,17.80
2022-08-07T07:45:04.634Z,17.90
2022-08-07T07:47:42.715Z,18.00
2022-08-07T07:50:33.757Z,18.00
2022-08-07T07:53:20.462Z,18.20
2022-08-07T07:55:57.855Z,18.20
2022-08-07T07:58:37.064Z,18.20
2022-08-07T08:02:01.633Z,18.30
2022-08-07T08:04:10.640Z,18.40
2022-08-07T08:06:50.877Z,18.40
2022-08-07T08:09:23.946Z,18.50
2022-08-07T08:12:02.885Z,18.50
2022-08-07T08:14:36.621Z,18.50
2022-08-07T08:17:55.599Z,18.70
2022-08-07T08:20:17.030Z,18.70
2022-08-07T08:23:10.174Z,18.80
2022-08-07T08:26:03.420Z,18.90
2022-08-07T08:28:44.755Z,19.00
2022-08-07T08:31:30.237Z,19.10
2022-08-07T08:34:12.426Z,19.20
2022-08-07T08:36:58.408Z,19.30
2022-08-07T08:39:39.635Z,19.40
2022-08-07T08:42:25.704Z,19.40
2022-08-07T08:45:04.776Z,19.60
2022-08-07T08:47:51.907Z,19.70
2022-08-07T08:50:34.770Z,19.80
2022-08-07T08:53:21.718Z,19.90
2022-08-07T08:55:58.643Z,20.00
2022-08-07T08:58:36.771Z,20.00
2022-08-07T09:01:15.197Z,20.10
2022-08-07T09:03:56.897Z,20.20
2022-08-07T09:06:40.250Z,20.20
2022-08-07T09:09:30.003Z,20.30
2022-08-07T09:12:30.251Z,20.30
2022-08-07T09:16:22.034Z,20.40
2022-08-07T09:18:22.786Z,20.50
2022-08-07T09:21:01.062Z,20.50
2022-08-07T09:24:32.814Z,20.50
2022-08-07T09:26:53.263Z,20.60
2022-08-07T09:30:03.804Z,20.60
2022-08-07T09:32:32.544Z,20.70
2022-08-07T09:36:04.845Z,20.70
2022-08-07T09:38:10.426Z,20.80
2022-08-07T09:40:58.729Z,20.90
2022-08-07T09:44:05.705Z,21.00
2022-08-07T09:47:50.721Z,21.10
2022-08-07T09:50:02.859Z,21.20
2022-08-07T09:52:40.702Z,21.30
2022-08-07T09:55:17.436Z,21.40
2022-08-07T09:58:48.758Z,21.50
2022-08-07T10:01:51.391Z,21.50
2022-08-07T10:04:38.435Z,21.60
2022-08-07T10:07:52.355Z,21.70
2022-08-07T10:10:43.623Z,21.80
2022-08-07T10:14:00.075Z,21.80
2022-08-07T10:16:53.721Z,21.80
2022-08-07T10:19:40.868Z,22.00
2022-08-07T10:22:36.694Z,22.00
2022-08-07T10:25:20.859Z,22.10
2022-08-07T10:28:06.631Z,22.20
2022-08-07T10:30:54.663Z,22.20
2022-08-07T10:34:05.038Z,22.30
2022-08-07T10:36:49.112Z,22.40
2022-08-07T10:39:42.134Z,22.50
2022-08-07T10:42:36.530Z,22.60
2022-08-07T10:45:19.340Z,22.60
2022-08-07T10:47:56.657Z,22.70
2022-08-07T10:50:38.585Z,22.70
2022-08-07T10:53:28.686Z,22.70
2022-08-07T10:56:30.958Z,22.80
2022-08-07T10:59:10.612Z,22.90
2022-08-07T11:01:52.069Z,22.90
2022-08-07T11:04:51.826Z,23.00
2022-08-07T11:08:00.321Z,23.00
2022-08-07T11:10:27.558Z,23.10
2022-08-07T11:13:03.314Z,23.10
2022-08-07T11:15:36.881Z,23.10
2022-08-07T11:18:12.551Z,23.10
2022-08-07T11:20:47.502Z,23.10
2022-08-07T11:23:30.892Z,23.20
2022-08-07T11:26:14.381Z,23.20
2022-08-07T11:28:55.351Z,23.10
2022-08-07T11:31:35.119Z,23.20
2022-08-07T11:34:17.050Z,23.20
2022-08-07T11:37:03.338Z,23.20
2022-08-07T11:40:00.372Z,23.10
2022-08-07T11:42:41.837Z,23.20
2022-08-07T11:45:20.473Z,23.30
2022-08-07T11:48:29.787Z,23.40
2022-08-07T11:51:41.644Z,23.40
2022-08-07T11:54:29.614Z,23.50
2022-08-07T11:57:12.710Z,23.50
2022-08-07T12:00:10.988Z,23.60
2022-08-07T12:03:41.955Z,23.60
2022-08-07T12:06:37.693Z,23.70
2022-08-07T12:09:16.546Z,23.90
2022-08-07T12:12:10.638Z,23.90
2022-08-07T12:15:00.597Z,23.90
2022-08-07T12:17:58.574Z,23.90
2022-08-07T12:20:35.220Z,23.90
2022-08-07T12:23:17.950Z,23.90
2022-08-07T12:26:03.054Z,23.90
2022-08-07T12:28:52.841Z,23.90
2022-08-07T12:31:52.746Z,23.90
2022-08-07T12:34:21.540Z,23.90
2022-08-07T12:36:56.063Z,23.90
2022-08-07T12:39:42.807Z,23.90
2022-08-07T12:42:13.592Z,24.00
2022-08-07T12:44:45.084Z,24.10
2022-08-07T12:47:26.812Z,24.10
2022-08-07T12:50:04.681Z,24.10
2022-08-07T12:52:46.238Z,24.10
2022-08-07T12:55:24.931Z,24.20
2022-08-07T12:58:17.934Z,24.30
2022-08-07T13:00:54.981Z,24.30
2022-08-07T13:04:02.085Z,24.30
2022-08-07T13:07:01.153Z,24.30
2022-08-07T13:10:19.534Z,24.30
2022-08-07T13:12:47.499Z,24.30
2022-08-07T13:15:29.823Z,24.40
2022-08-07T13:18:26.432Z,24.40
2022-08-07T13:21:07.295Z,24.50
2022-08-07T13:24:01.409Z,24.50
2022-08-07T13:26:41.864Z,24.60
2022-08-07T13:29:18.998Z,24.60
2022-08-07T13:31:57.357Z,24.70
2022-08-07T13:34:36.434Z,24.70
2022-08-07T13:37:19.845Z,24.70
2022-08-07T13:40:35.644Z,24.70
2022-08-07T13:42:49.536Z,24.70
2022-08-07T13:46:11.496Z,24.70
2022-08-07T13:48:10.426Z,24.80
2022-08-07T13:51:00.261Z,24.90
2022-08-07T13:53:59.590Z,24.90
2022-08-07T13:56:36.069Z,24.90
2022-08-07T13:59:13.422Z,24.80
2022-08-07T14:01:55.667Z,24.80
2022-08-07T14:04:35.759Z,24.80
2022-08-07T14:07:09.289Z,24.80
2022-08-07T14:10:12.228Z,24.80
2022-08-07T14:12:41.831Z,24.80
2022-08-07T14:15:18.746Z,24.70
2022-08-07T14:18:24.099Z,24.70
2022-08-07T14:22:41.004Z,24.80
2022-08-07T14:23:31.741Z,24.80
2022-08-07T14:26:29.688Z,24.90
2022-08-07T14:30:02.733Z,24.80
2022-08-07T14:31:57.972Z,24.90
2022-08-07T14:34:30.313Z,24.90
2022-08-07T14:37:01.933Z,24.80
2022-08-07T14:40:16.043Z,24.90
2022-08-07T14:42:31.531Z,24.90
2022-08-07T14:45:21.444Z,24.90
2022-08-07T14:50:45.752Z,24.90
2022-08-07T14:53:15.167Z,24.80
2022-08-07T14:58:38.705Z,24.90
2022-08-07T15:01:21.649Z,24.90
2022-08-07T15:03:54.399Z,24.90
2022-08-07T15:06:25.625Z,24.90
2022-08-07T15:08:55.869Z,24.90
2022-08-07T15:11:54.504Z,24.90
2022-08-07T15:14:25.394Z,24.90
2022-08-07T15:17:01.888Z,24.90
2022-08-07T15:22:33.450Z,25.00
2022-08-07T15:28:33.019Z,25.10
2022-08-07T15:31:04.891Z,25.10
2022-08-07T15:37:03.357Z,25.00
2022-08-07T15:39:14.550Z,25.10
2022-08-07T15:44:52.149Z,25.00
2022-08-07T15:50:37.883Z,24.90
2022-08-07T15:53:11.278Z,25.00
2022-08-07T15:55:53.506Z,25.00
2022-08-07T15:58:36.989Z,25.00
2022-08-07T16:01:15.430Z,24.90
2022-08-07T16:03:58.220Z,25.00
2022-08-07T16:06:31.306Z,25.00
2022-08-07T16:09:03.141Z,25.00
2022-08-07T16:11:53.050Z,25.00
2022-08-07T16:14:37.684Z,25.00
2022-08-07T16:18:02.851Z,25.00
2022-08-07T16:20:38.992Z,25.00
2022-08-07T16:23:58.498Z,25.00
2022-08-07T16:26:59.328Z,25.00
2022-08-07T16:30:17.636Z,25.00
2022-08-07T16:32:46.539Z,25.00
2022-08-07T16:35:51.841Z,25.00
2022-08-07T16:38:59.867Z,25.00
2022-08-07T16:41:48.566Z,24.90
2022-08-07T16:45:04.105Z,24.90
2022-08-07T16:47:51.462Z,24.90
2022-08-07T16:51:07.379Z,24.90
2022-08-07T16:54:09.039Z,24.90
2022-08-07T16:56:56.995Z,24.90
2022-08-07T16:59:46.731Z,24.90
2022-08-07T17:02:53.276Z,24.80
2022-08-07T17:06:19.904Z,24.90
2022-08-07T17:09:08.671Z,24.90
2022-08-07T17:12:05.303Z,24.90
2022-08-07T17:14:35.096Z,24.90
2022-08-07T17:17:09.767Z,24.90
2022-08-07T17:20:02.884Z,25.00
2022-08-07T17:22:42.553Z,25.00
2022-08-07T17:25:19.389Z,25.20
2022-08-07T17:28:01.340Z,25.30
2022-08-07T17:30:57.581Z,25.40
2022-08-07T17:34:08.677Z,25.60
2022-08-07T17:36:26.447Z,25.80
2022-08-07T17:39:02.330Z,25.80
2022-08-07T17:42:04.347Z,25.60
2022-08-07T17:44:49.981Z,25.50
2022-08-07T17:47:38.002Z,25.50
2022-08-07T17:50:19.019Z,25.50
2022-08-07T17:52:53.952Z,25.50
2022-08-07T17:56:00.998Z,25.50
2022-08-07T17:58:31.403Z,25.50
2022-08-07T18:01:21.536Z,25.40
2022-08-07T18:04:07.747Z,25.40
2022-08-07T18:06:43.689Z,25.30
2022-08-07T18:09:19.416Z,25.20
2022-08-07T18:12:19.894Z,25.10
2022-08-07T18:15:08.343Z,24.90
2022-08-07T18:18:44.661Z,24.80
2022-08-07T18:21:07.959Z,24.70
2022-08-07T18:23:50.798Z,24.60
2022-08-07T18:26:44.329Z,24.50
2022-08-07T18:30:05.887Z,24.30
2022-08-07T18:32:22.347Z,24.20
2022-08-07T18:35:16.815Z,24.00
2022-08-07T18:38:58.481Z,23.90
2022-08-07T18:41:07.944Z,23.80
2022-08-07T18:43:49.498Z,23.60
2022-08-07T18:46:29.817Z,23.40
2022-08-07T18:50:31.133Z,23.30
2022-08-07T18:52:37.376Z,23.10
2022-08-07T18:55:43.193Z,22.90
2022-08-07T18:58:15.164Z,22.70
2022-08-07T19:00:54.398Z,22.50
2022-08-07T19:03:37.948Z,22.40
2022-08-07T19:06:17.222Z,22.20
2022-08-07T19:09:09.029Z,22.10
2022-08-07T19:12:04.689Z,21.90
2022-08-07T19:16:03.087Z,21.70
2022-08-07T19:18:13.478Z,21.50
2022-08-07T19:21:08.875Z,21.40
2022-08-07T19:23:58.612Z,21.30
2022-08-07T19:27:01.910Z,21.20
2022-08-07T19:31:02.940Z,21.00
2022-08-07T19:32:26.942Z,20.90
2022-08-07T19:35:03.049Z,20.80
2022-08-07T19:37:57.175Z,20.70
2022-08-07T19:40:31.022Z,20.50
2022-08-07T19:43:08.688Z,20.40
2022-08-07T19:46:01.289Z,20.30
2022-08-07T19:48:42.633Z,20.20
2022-08-07T19:51:20.237Z,20.10
2022-08-07T19:54:32.176Z,20.00
2022-08-07T19:58:02.555Z,20.10
2022-08-07T19:59:54.185Z,20.10
2022-08-07T20:02:31.029Z,20.00
2022-08-07T20:05:03.825Z,20.00
2022-08-07T20:07:47.855Z,20.00
2022-08-07T20:10:35.746Z,19.90
2022-08-07T20:13:23.627Z,19.90
2022-08-07T20:15:59.122Z,19.90
2022-08-07T20:18:32.866Z,19.80
2022-08-07T20:21:14.345Z,19.70
2022-08-07T20:24:00.299Z,19.60
2022-08-07T20:26:38.965Z,19.50
2022-08-07T20:29:46.563Z,19.40
2022-08-07T20:32:11.581Z,19.40
2022-08-07T20:34:54.857Z,19.30
2022-08-07T20:37:26.380Z,19.30
2022-08-07T20:40:05.071Z,19.20
2022-08-07T20:42:56.122Z,19.10
2022-08-07T20:45:33.678Z,19.10
2022-08-07T20:48:25.895Z,19.10
2022-08-07T20:50:59.535Z,19.10
2022-08-07T20:54:03.668Z,19.10
2022-08-07T20:56:20.129Z,19.00
2022-08-07T20:58:58.665Z,19.00
2022-08-07T21:01:29.739Z,18.90
2022-08-07T21:04:22.687Z,18.90
2022-08-07T21:06:57.109Z,18.80
2022-08-07T21:09:51.761Z,18.80
2022-08-07T21:12:28.690Z,18.70
2022-08-07T21:15:03.028Z,18.60
2022-08-07T21:18:09.015Z,18.60
2022-08-07T21:20:30.255Z,18.60
2022-08-07T21:23:07.672Z,18.50
2022-08-07T21:25:56.287Z,18.50
2022-08-07T21:28:48.705Z,18.40
2022-08-07T21:31:49.196Z,18.40
2022-08-07T21:34:19.237Z,18.40
2022-08-07T21:36:54.715Z,18.40
2022-08-07T21:39:45.110Z,18.40
2022-08-07T21:42:42.964Z,18.40
2022-08-07T21:46:04.843Z,18.30
2022-08-07T21:48:27.682Z,18.30
2022-08-07T21:51:20.306Z,18.30
2022-08-07T21:54:02.348Z,18.40
2022-08-07T21:56:46.986Z,18.50
2022-08-07T22:00:02.852Z,18.70
2022-08-07T22:02:30.376Z,18.70
2022-08-07T22:05:01.179Z,18.80
2022-08-07T22:07:58.129Z,18.90
2022-08-07T22:10:24.838Z,18.90
2022-08-07T22:12:56.722Z,19.00
2022-08-07T22:16:41.927Z,19.00
2022-08-07T22:18:36.448Z,18.90
2022-08-07T22:21:16.633Z,18.90
2022-08-07T22:23:53.669Z,18.90
2022-08-07T22:26:29.783Z,18.80
2022-08-07T22:29:09.042Z,18.80
2022-08-07T22:31:59.955Z,18.70
2022-08-07T22:34:53.088Z,18.60
2022-08-07T22:38:04.252Z,18.50
2022-08-07T22:40:26.426Z,18.30
2022-08-07T22:43:04.170Z,18.20
2022-08-07T22:46:40.854Z,18.10
2022-08-07T22:48:55.399Z,18.00
2022-08-07T22:52:00.819Z,18.00
2022-08-07T22:55:17.166Z,17.90
2022-08-07T22:58:27.977Z,17.80
2022-08-07T23:01:24.057Z,17.80
2022-08-07T23:04:04.861Z,17.70
2022-08-07T23:07:39.816Z,17.70
2022-08-07T23:10:36.477Z,17.70
2022-08-07T23:13:14.312Z,17.70
2022-08-07T23:16:05.609Z,17.50
2022-08-07T23:19:15.948Z,17.50
2022-08-07T23:21:52.371Z,17.50
2022-08-07T23:24:38.604Z,17.50
2022-08-07T23:27:34.534Z,17.50
2022-08-07T23:30:38.787Z,17.40
2022-08-07T23:34:34.908Z,17.30
2022-08-07T23:36:17.391Z,17.30
2022-08-07T23:39:08.505Z,17.30
2022-08-07T23:42:04.838Z,17.30
2022-08-07T23:44:56.057Z,17.20
2022-08-07T23:47:51.679Z,17.20
2022-08-07T23:50:33.467Z,17.10
2022-08-07T23:53:22.908Z,17.10
2022-08-07T23:56:21.157Z,17.10
2022-08-07T23:58:55.778Z,17.10
